FMHAV LFKT-LFMA
Flight info
| Callsign | FMHAV |
|---|---|
| Flight time | 1h 44m |
| Altitude | 9000 |
| Route | VFR BEBEV M622 MERLU A3 RUBIT G7 LANKO LANK3A |
| Aircraft | DR40/L-VGD/A |
Departure
| Time | 2026-05-07 19:47 |
|---|---|
| Airport | Aérodrome de Corte (LFKT) |
Arrival
| Time | 2026-05-07 21:31 |
|---|---|
| Airport | Aix Les Milles airport (LFMA) |
| Time | Latitude | Longitude | Altitude | Speed | Heading |
|---|---|---|---|---|---|
| 2026-05-07 19:29 | 42.28996 | 9.19151 | 1103 ft | 0 kts | 127° |
| 2026-05-07 19:45 | 42.28985 | 9.19171 | 1102 ft | 5 kts | 127° |
| 2026-05-07 19:45 | 42.28987 | 9.19214 | 1101 ft | 5 kts | 33° |
| 2026-05-07 19:45 | 42.29011 | 9.19239 | 1100 ft | 3 kts | 38° |
| 2026-05-07 19:45 | 42.29026 | 9.19268 | 1100 ft | 6 kts | 101° |
| 2026-05-07 19:46 | 42.28988 | 9.19344 | 1097 ft | 12 kts | 131° |
| 2026-05-07 19:46 | 42.28953 | 9.19408 | 1094 ft | 2 kts | 246° |
| 2026-05-07 19:46 | 42.28970 | 9.19374 | 1097 ft | 19 kts | 304° |
| 2026-05-07 19:46 | 42.29190 | 9.18963 | 1115 ft | 82 kts | 305° |
| 2026-05-07 19:47 | 42.29559 | 9.18247 | 1307 ft | 95 kts | 306° |
| 2026-05-07 19:47 | 42.29914 | 9.17539 | 1594 ft | 88 kts | 304° |
| 2026-05-07 19:47 | 42.30239 | 9.16866 | 1876 ft | 82 kts | 301° |
| 2026-05-07 19:47 | 42.30568 | 9.16309 | 2174 ft | 69 kts | 339° |
| 2026-05-07 19:48 | 42.30914 | 9.16586 | 2447 ft | 66 kts | 75° |
| 2026-05-07 19:48 | 42.30676 | 9.17084 | 2738 ft | 76 kts | 159° |
| 2026-05-07 19:48 | 42.30201 | 9.16811 | 3043 ft | 84 kts | 225° |
| 2026-05-07 19:48 | 42.30244 | 9.16142 | 3356 ft | 83 kts | 327° |
| 2026-05-07 19:49 | 42.30774 | 9.16199 | 3627 ft | 82 kts | 42° |
| 2026-05-07 19:49 | 42.30935 | 9.16887 | 3936 ft | 80 kts | 107° |
| 2026-05-07 19:49 | 42.30433 | 9.17335 | 4102 ft | 98 kts | 175° |
| 2026-05-07 19:49 | 42.30033 | 9.16705 | 4303 ft | 110 kts | 270° |
| 2026-05-07 19:50 | 42.30395 | 9.16059 | 4711 ft | 90 kts | 355° |
| 2026-05-07 19:50 | 42.30905 | 9.16513 | 4897 ft | 96 kts | 58° |
| 2026-05-07 19:50 | 42.30837 | 9.17343 | 5017 ft | 107 kts | 140° |
| 2026-05-07 19:50 | 42.30032 | 9.17471 | 4877 ft | 133 kts | 195° |
| 2026-05-07 19:51 | 42.29491 | 9.16497 | 4674 ft | 145 kts | 262° |
| 2026-05-07 19:51 | 42.29874 | 9.15522 | 4991 ft | 114 kts | 315° |
| 2026-05-07 19:51 | 42.30379 | 9.14788 | 5309 ft | 105 kts | 310° |
| 2026-05-07 19:51 | 42.30818 | 9.14008 | 5568 ft | 104 kts | 302° |
| 2026-05-07 19:52 | 42.31318 | 9.13202 | 5743 ft | 105 kts | 310° |
| 2026-05-07 19:52 | 42.31774 | 9.12480 | 6058 ft | 102 kts | 307° |
| 2026-05-07 19:52 | 42.32222 | 9.11746 | 6352 ft | 102 kts | 307° |
| 2026-05-07 19:52 | 42.32553 | 9.10929 | 6646 ft | 100 kts | 272° |
| 2026-05-07 19:53 | 42.32555 | 9.09987 | 6927 ft | 101 kts | 263° |
| 2026-05-07 19:53 | 42.32532 | 9.09050 | 7201 ft | 101 kts | 262° |
| 2026-05-07 19:53 | 42.32507 | 9.08096 | 7470 ft | 102 kts | 263° |
| 2026-05-07 19:53 | 42.32480 | 9.07147 | 7737 ft | 102 kts | 262° |
| 2026-05-07 19:54 | 42.32367 | 9.06210 | 8000 ft | 102 kts | 259° |
| 2026-05-07 19:54 | 42.32334 | 9.05261 | 8266 ft | 102 kts | 263° |
| 2026-05-07 19:54 | 42.32310 | 9.04300 | 8536 ft | 102 kts | 263° |
| 2026-05-07 19:54 | 42.32288 | 9.03345 | 8804 ft | 102 kts | 262° |
| 2026-05-07 19:55 | 42.32274 | 9.02401 | 9070 ft | 102 kts | 263° |
| 2026-05-07 19:55 | 42.32260 | 9.01441 | 9303 ft | 105 kts | 262° |
| 2026-05-07 19:55 | 42.32238 | 9.00371 | 9328 ft | 121 kts | 263° |
| 2026-05-07 19:55 | 42.32206 | 8.99192 | 9323 ft | 130 kts | 263° |
| 2026-05-07 19:56 | 42.32171 | 8.97943 | 9317 ft | 134 kts | 263° |
| 2026-05-07 19:56 | 42.32131 | 8.96680 | 9313 ft | 135 kts | 263° |
| 2026-05-07 19:56 | 42.32092 | 8.95398 | 9308 ft | 136 kts | 263° |
| 2026-05-07 19:56 | 42.32055 | 8.94134 | 9303 ft | 136 kts | 263° |
| 2026-05-07 19:57 | 42.32014 | 8.92827 | 9223 ft | 141 kts | 263° |
| 2026-05-07 19:57 | 42.31972 | 8.91490 | 9121 ft | 143 kts | 263° |
| 2026-05-07 19:57 | 42.31670 | 8.90237 | 9036 ft | 140 kts | 239° |
| 2026-05-07 19:57 | 42.31221 | 8.89136 | 9000 ft | 128 kts | 237° |
| 2026-05-07 19:58 | 42.30800 | 8.88125 | 8996 ft | 119 kts | 236° |
| 2026-05-07 19:58 | 42.30399 | 8.87166 | 8998 ft | 115 kts | 236° |
| 2026-05-07 19:58 | 42.30009 | 8.86236 | 8998 ft | 113 kts | 237° |
| 2026-05-07 19:58 | 42.29617 | 8.85308 | 9001 ft | 113 kts | 236° |
| 2026-05-07 19:59 | 42.29236 | 8.84401 | 9004 ft | 112 kts | 236° |
| 2026-05-07 19:59 | 42.28848 | 8.83470 | 9007 ft | 112 kts | 236° |
| 2026-05-07 19:59 | 42.28471 | 8.82558 | 9010 ft | 112 kts | 236° |
| 2026-05-07 19:59 | 42.28099 | 8.81626 | 9007 ft | 113 kts | 243° |
| 2026-05-07 20:00 | 42.27880 | 8.80603 | 9010 ft | 113 kts | 251° |
| 2026-05-07 20:00 | 42.27695 | 8.79568 | 9010 ft | 114 kts | 251° |
| 2026-05-07 20:00 | 42.27514 | 8.78528 | 9009 ft | 114 kts | 252° |
| 2026-05-07 20:00 | 42.27336 | 8.77488 | 9007 ft | 114 kts | 252° |
| 2026-05-07 20:01 | 42.27156 | 8.76436 | 9005 ft | 114 kts | 252° |
| 2026-05-07 20:01 | 42.26978 | 8.75396 | 9005 ft | 114 kts | 252° |
| 2026-05-07 20:01 | 42.26798 | 8.74344 | 9002 ft | 114 kts | 252° |
| 2026-05-07 20:01 | 42.26621 | 8.73301 | 9001 ft | 114 kts | 252° |
| 2026-05-07 20:02 | 42.26440 | 8.72258 | 8999 ft | 114 kts | 252° |
| 2026-05-07 20:02 | 42.26265 | 8.71222 | 8997 ft | 114 kts | 252° |
| 2026-05-07 20:02 | 42.26085 | 8.70173 | 8993 ft | 114 kts | 252° |
| 2026-05-07 20:02 | 42.25906 | 8.69130 | 8991 ft | 114 kts | 252° |
| 2026-05-07 20:03 | 42.25727 | 8.68089 | 8988 ft | 114 kts | 252° |
| 2026-05-07 20:03 | 42.25547 | 8.67043 | 8988 ft | 114 kts | 252° |
| 2026-05-07 20:03 | 42.25369 | 8.66008 | 8989 ft | 114 kts | 252° |
| 2026-05-07 20:03 | 42.25189 | 8.64956 | 8989 ft | 114 kts | 253° |
| 2026-05-07 20:04 | 42.25012 | 8.63924 | 8987 ft | 114 kts | 252° |
| 2026-05-07 20:04 | 42.24833 | 8.62881 | 8986 ft | 114 kts | 252° |
| 2026-05-07 20:04 | 42.24654 | 8.61832 | 8985 ft | 114 kts | 252° |
| 2026-05-07 20:04 | 42.24477 | 8.60798 | 8990 ft | 114 kts | 252° |
| 2026-05-07 20:05 | 42.24295 | 8.59759 | 8991 ft | 114 kts | 252° |
| 2026-05-07 20:05 | 42.24115 | 8.58711 | 8986 ft | 115 kts | 252° |
| 2026-05-07 20:05 | 42.23935 | 8.57653 | 8984 ft | 114 kts | 252° |
| 2026-05-07 20:05 | 42.23754 | 8.56616 | 8982 ft | 114 kts | 252° |
| 2026-05-07 20:06 | 42.23574 | 8.55570 | 8981 ft | 114 kts | 252° |
| 2026-05-07 20:06 | 42.23391 | 8.54525 | 8978 ft | 114 kts | 252° |
| 2026-05-07 20:06 | 42.23210 | 8.53492 | 8982 ft | 113 kts | 252° |
| 2026-05-07 20:06 | 42.23026 | 8.52452 | 8984 ft | 114 kts | 252° |
| 2026-05-07 20:07 | 42.22842 | 8.51414 | 8978 ft | 115 kts | 252° |
| 2026-05-07 20:07 | 42.22654 | 8.50359 | 8975 ft | 114 kts | 252° |
| 2026-05-07 20:07 | 42.22472 | 8.49317 | 8978 ft | 114 kts | 252° |
| 2026-05-07 20:07 | 42.22291 | 8.48279 | 8980 ft | 115 kts | 253° |
| 2026-05-07 20:08 | 42.22105 | 8.47219 | 8973 ft | 115 kts | 252° |
| 2026-05-07 20:08 | 42.21924 | 8.46177 | 8977 ft | 114 kts | 252° |
| 2026-05-07 20:08 | 42.21845 | 8.45115 | 8964 ft | 117 kts | 278° |
| 2026-05-07 20:08 | 42.22278 | 8.44191 | 8963 ft | 120 kts | 318° |
| 2026-05-07 20:09 | 42.22981 | 8.43577 | 8975 ft | 119 kts | 327° |
| 2026-05-07 20:09 | 42.23698 | 8.43023 | 8980 ft | 119 kts | 328° |
| 2026-05-07 20:09 | 42.24430 | 8.42468 | 8979 ft | 120 kts | 328° |
| 2026-05-07 20:10 | 42.25724 | 8.41493 | 8975 ft | 120 kts | 329° |
| 2026-05-07 20:10 | 42.26168 | 8.41159 | 8974 ft | 120 kts | 328° |
| 2026-05-07 20:10 | 42.26447 | 8.40950 | 8975 ft | 120 kts | 329° |
| 2026-05-07 20:10 | 42.27169 | 8.40407 | 8975 ft | 119 kts | 329° |
| 2026-05-07 20:11 | 42.27903 | 8.39857 | 8976 ft | 120 kts | 329° |
| 2026-05-07 20:11 | 42.28634 | 8.39310 | 8981 ft | 120 kts | 329° |
| 2026-05-07 20:11 | 42.29366 | 8.38762 | 8979 ft | 120 kts | 329° |
| 2026-05-07 20:11 | 42.30099 | 8.38214 | 8980 ft | 120 kts | 329° |
| 2026-05-07 20:12 | 42.30830 | 8.37668 | 8977 ft | 121 kts | 329° |
| 2026-05-07 20:12 | 42.31566 | 8.37115 | 8974 ft | 122 kts | 329° |
| 2026-05-07 20:12 | 42.32310 | 8.36558 | 8976 ft | 125 kts | 328° |
| 2026-05-07 20:12 | 42.33081 | 8.35976 | 8979 ft | 129 kts | 329° |
| 2026-05-07 20:13 | 42.33878 | 8.35379 | 8975 ft | 131 kts | 329° |
| 2026-05-07 20:13 | 42.34682 | 8.34778 | 8972 ft | 132 kts | 328° |
| 2026-05-07 20:13 | 42.35486 | 8.34176 | 8976 ft | 132 kts | 328° |
| 2026-05-07 20:13 | 42.36293 | 8.33572 | 8977 ft | 133 kts | 328° |
| 2026-05-07 20:14 | 42.37104 | 8.32964 | 8974 ft | 133 kts | 328° |
| 2026-05-07 20:14 | 42.37912 | 8.32359 | 8971 ft | 133 kts | 328° |
| 2026-05-07 20:14 | 42.38724 | 8.31751 | 8971 ft | 132 kts | 328° |
| 2026-05-07 20:14 | 42.39407 | 8.31239 | 8974 ft | 132 kts | 328° |
| 2026-05-07 20:15 | 42.40215 | 8.30633 | 8976 ft | 132 kts | 328° |
| 2026-05-07 20:15 | 42.41019 | 8.30030 | 8975 ft | 133 kts | 328° |
| 2026-05-07 20:15 | 42.41827 | 8.29425 | 8980 ft | 133 kts | 328° |
| 2026-05-07 20:15 | 42.42631 | 8.28819 | 8982 ft | 132 kts | 328° |
| 2026-05-07 20:16 | 42.43435 | 8.28216 | 8979 ft | 132 kts | 328° |
| 2026-05-07 20:16 | 42.44245 | 8.27608 | 8979 ft | 133 kts | 328° |
| 2026-05-07 20:16 | 42.45056 | 8.26998 | 8979 ft | 133 kts | 329° |
| 2026-05-07 20:16 | 42.45856 | 8.26397 | 8976 ft | 132 kts | 329° |
| 2026-05-07 20:17 | 42.46672 | 8.25784 | 8975 ft | 132 kts | 328° |
| 2026-05-07 20:17 | 42.47468 | 8.25186 | 8977 ft | 132 kts | 328° |
| 2026-05-07 20:17 | 42.48275 | 8.24578 | 8978 ft | 132 kts | 328° |
| 2026-05-07 20:17 | 42.49087 | 8.23967 | 8974 ft | 132 kts | 328° |
| 2026-05-07 20:18 | 42.49891 | 8.23362 | 8978 ft | 132 kts | 328° |
| 2026-05-07 20:18 | 42.50703 | 8.22750 | 8976 ft | 132 kts | 328° |
| 2026-05-07 20:18 | 42.51506 | 8.22145 | 8980 ft | 132 kts | 329° |
| 2026-05-07 20:18 | 42.52304 | 8.21543 | 8980 ft | 133 kts | 329° |
| 2026-05-07 20:19 | 42.53110 | 8.20935 | 8982 ft | 132 kts | 329° |
| 2026-05-07 20:19 | 42.53920 | 8.20325 | 8983 ft | 132 kts | 329° |
| 2026-05-07 20:19 | 42.54729 | 8.19715 | 8977 ft | 132 kts | 329° |
| 2026-05-07 20:19 | 42.55535 | 8.19108 | 8976 ft | 132 kts | 328° |
| 2026-05-07 20:20 | 42.56342 | 8.18499 | 8978 ft | 132 kts | 328° |
| 2026-05-07 20:20 | 42.57148 | 8.17892 | 8977 ft | 132 kts | 328° |
| 2026-05-07 20:20 | 42.57944 | 8.17290 | 8979 ft | 132 kts | 328° |
| 2026-05-07 20:20 | 42.58744 | 8.16685 | 8979 ft | 131 kts | 328° |
| 2026-05-07 20:21 | 42.59545 | 8.16080 | 8979 ft | 131 kts | 328° |
| 2026-05-07 20:21 | 42.60352 | 8.15471 | 8979 ft | 131 kts | 328° |
| 2026-05-07 20:21 | 42.61149 | 8.14867 | 8978 ft | 131 kts | 328° |
| 2026-05-07 20:21 | 42.61945 | 8.14264 | 8979 ft | 132 kts | 328° |
| 2026-05-07 20:22 | 42.62755 | 8.13651 | 8979 ft | 132 kts | 329° |
| 2026-05-07 20:22 | 42.63553 | 8.13048 | 8981 ft | 132 kts | 329° |
| 2026-05-07 20:22 | 42.64364 | 8.12434 | 8982 ft | 132 kts | 329° |
| 2026-05-07 20:22 | 42.65158 | 8.11832 | 8981 ft | 132 kts | 329° |
| 2026-05-07 20:23 | 42.65957 | 8.11227 | 8980 ft | 131 kts | 329° |
| 2026-05-07 20:23 | 42.66765 | 8.10615 | 8980 ft | 131 kts | 329° |
| 2026-05-07 20:23 | 42.67566 | 8.10010 | 8979 ft | 132 kts | 329° |
| 2026-05-07 20:23 | 42.68368 | 8.09402 | 8976 ft | 132 kts | 328° |
| 2026-05-07 20:24 | 42.69170 | 8.08794 | 8979 ft | 132 kts | 328° |
| 2026-05-07 20:24 | 42.69974 | 8.08183 | 8978 ft | 132 kts | 329° |
| 2026-05-07 20:24 | 42.70776 | 8.07574 | 8980 ft | 132 kts | 329° |
| 2026-05-07 20:24 | 42.71573 | 8.06969 | 8979 ft | 132 kts | 329° |
| 2026-05-07 20:25 | 42.72376 | 8.06358 | 8979 ft | 131 kts | 329° |
| 2026-05-07 20:25 | 42.73174 | 8.05753 | 8979 ft | 131 kts | 329° |
| 2026-05-07 20:25 | 42.73978 | 8.05143 | 8978 ft | 132 kts | 329° |
| 2026-05-07 20:25 | 42.74776 | 8.04538 | 8980 ft | 132 kts | 329° |
| 2026-05-07 20:26 | 42.75580 | 8.03927 | 8981 ft | 131 kts | 329° |
| 2026-05-07 20:26 | 42.76369 | 8.03327 | 8980 ft | 131 kts | 329° |
| 2026-05-07 20:26 | 42.77169 | 8.02718 | 8979 ft | 131 kts | 329° |
| 2026-05-07 20:26 | 42.77974 | 8.02107 | 8979 ft | 131 kts | 329° |
| 2026-05-07 20:27 | 42.78772 | 8.01503 | 8981 ft | 131 kts | 329° |
| 2026-05-07 20:27 | 42.79568 | 8.00901 | 8980 ft | 131 kts | 329° |
| 2026-05-07 20:27 | 42.80363 | 8.00299 | 8976 ft | 131 kts | 329° |
| 2026-05-07 20:27 | 42.81162 | 7.99694 | 8972 ft | 131 kts | 329° |
| 2026-05-07 20:28 | 42.81957 | 7.99092 | 8968 ft | 131 kts | 329° |
| 2026-05-07 20:28 | 42.82756 | 7.98485 | 8966 ft | 131 kts | 329° |
| 2026-05-07 20:28 | 42.83556 | 7.97878 | 8966 ft | 131 kts | 329° |
| 2026-05-07 20:28 | 42.84347 | 7.97278 | 8965 ft | 130 kts | 329° |
| 2026-05-07 20:29 | 42.85144 | 7.96673 | 8965 ft | 131 kts | 329° |
| 2026-05-07 20:29 | 42.85931 | 7.96076 | 8964 ft | 131 kts | 329° |
| 2026-05-07 20:29 | 42.86735 | 7.95467 | 8965 ft | 131 kts | 329° |
| 2026-05-07 20:29 | 42.87521 | 7.94869 | 8965 ft | 131 kts | 329° |
| 2026-05-07 20:30 | 42.88320 | 7.94262 | 8965 ft | 131 kts | 329° |
| 2026-05-07 20:30 | 42.89118 | 7.93657 | 8965 ft | 131 kts | 329° |
| 2026-05-07 20:30 | 42.89914 | 7.93052 | 8965 ft | 131 kts | 329° |
| 2026-05-07 20:30 | 42.90714 | 7.92445 | 8966 ft | 132 kts | 329° |
| 2026-05-07 20:31 | 42.91525 | 7.91829 | 8966 ft | 132 kts | 329° |
| 2026-05-07 20:31 | 42.92329 | 7.91216 | 8965 ft | 132 kts | 329° |
| 2026-05-07 20:31 | 42.93132 | 7.90604 | 8965 ft | 132 kts | 329° |
| 2026-05-07 20:31 | 42.93928 | 7.89998 | 8966 ft | 132 kts | 329° |
| 2026-05-07 20:32 | 42.94735 | 7.89384 | 8967 ft | 131 kts | 329° |
| 2026-05-07 20:32 | 42.95524 | 7.88783 | 8967 ft | 131 kts | 329° |
| 2026-05-07 20:32 | 42.96331 | 7.88169 | 8968 ft | 131 kts | 329° |
| 2026-05-07 20:32 | 42.97121 | 7.87567 | 8968 ft | 131 kts | 329° |
| 2026-05-07 20:33 | 42.97918 | 7.86961 | 8968 ft | 131 kts | 329° |
| 2026-05-07 20:33 | 42.98718 | 7.86350 | 8968 ft | 131 kts | 329° |
| 2026-05-07 20:33 | 42.99509 | 7.85747 | 8968 ft | 131 kts | 329° |
| 2026-05-07 20:33 | 43.00298 | 7.85145 | 8967 ft | 131 kts | 329° |
| 2026-05-07 20:34 | 43.01098 | 7.84535 | 8965 ft | 131 kts | 329° |
| 2026-05-07 20:34 | 43.01901 | 7.83922 | 8966 ft | 131 kts | 329° |
| 2026-05-07 20:34 | 43.02694 | 7.83317 | 8967 ft | 131 kts | 329° |
| 2026-05-07 20:34 | 43.03480 | 7.82717 | 8966 ft | 130 kts | 329° |
| 2026-05-07 20:35 | 43.04272 | 7.82112 | 8969 ft | 130 kts | 329° |
| 2026-05-07 20:35 | 43.05071 | 7.81501 | 8969 ft | 130 kts | 329° |
| 2026-05-07 20:35 | 43.05867 | 7.80891 | 8972 ft | 130 kts | 329° |
| 2026-05-07 20:35 | 43.06652 | 7.80290 | 8975 ft | 130 kts | 329° |
| 2026-05-07 20:36 | 43.07441 | 7.79679 | 8982 ft | 130 kts | 326° |
| 2026-05-07 20:36 | 43.07932 | 7.78679 | 8994 ft | 129 kts | 284° |
| 2026-05-07 20:36 | 43.08133 | 7.77463 | 8982 ft | 130 kts | 278° |
| 2026-05-07 20:36 | 43.08299 | 7.76246 | 8981 ft | 130 kts | 278° |
| 2026-05-07 20:37 | 43.08457 | 7.75037 | 8984 ft | 130 kts | 277° |
| 2026-05-07 20:37 | 43.08614 | 7.73808 | 8988 ft | 130 kts | 277° |
| 2026-05-07 20:37 | 43.08769 | 7.72593 | 8989 ft | 130 kts | 277° |
| 2026-05-07 20:37 | 43.08921 | 7.71373 | 8987 ft | 131 kts | 277° |
| 2026-05-07 20:38 | 43.09074 | 7.70152 | 8985 ft | 131 kts | 276° |
| 2026-05-07 20:38 | 43.09226 | 7.68911 | 8984 ft | 131 kts | 277° |
| 2026-05-07 20:38 | 43.09375 | 7.67695 | 8986 ft | 131 kts | 277° |
| 2026-05-07 20:38 | 43.09524 | 7.66463 | 8988 ft | 131 kts | 277° |
| 2026-05-07 20:39 | 43.09674 | 7.65240 | 8990 ft | 130 kts | 277° |
| 2026-05-07 20:39 | 43.09822 | 7.64028 | 8990 ft | 130 kts | 277° |
| 2026-05-07 20:39 | 43.09973 | 7.62799 | 8988 ft | 131 kts | 277° |
| 2026-05-07 20:39 | 43.10124 | 7.61563 | 8987 ft | 131 kts | 277° |
| 2026-05-07 20:40 | 43.10272 | 7.60344 | 8988 ft | 130 kts | 277° |
| 2026-05-07 20:40 | 43.10421 | 7.59120 | 8989 ft | 131 kts | 277° |
| 2026-05-07 20:40 | 43.10568 | 7.57895 | 8991 ft | 131 kts | 277° |
| 2026-05-07 20:40 | 43.10717 | 7.56654 | 8990 ft | 131 kts | 277° |
| 2026-05-07 20:41 | 43.10865 | 7.55425 | 8989 ft | 131 kts | 277° |
| 2026-05-07 20:41 | 43.11014 | 7.54189 | 8988 ft | 131 kts | 277° |
| 2026-05-07 20:41 | 43.11161 | 7.52964 | 8985 ft | 131 kts | 277° |
| 2026-05-07 20:41 | 43.11310 | 7.51720 | 8986 ft | 131 kts | 277° |
| 2026-05-07 20:42 | 43.11458 | 7.50487 | 8989 ft | 132 kts | 277° |
| 2026-05-07 20:42 | 43.11606 | 7.49250 | 8990 ft | 132 kts | 277° |
| 2026-05-07 20:42 | 43.11755 | 7.48011 | 8990 ft | 132 kts | 277° |
| 2026-05-07 20:42 | 43.11900 | 7.46787 | 8990 ft | 131 kts | 277° |
| 2026-05-07 20:43 | 43.12048 | 7.45556 | 8987 ft | 131 kts | 277° |
| 2026-05-07 20:43 | 43.12194 | 7.44325 | 8987 ft | 131 kts | 277° |
| 2026-05-07 20:43 | 43.12341 | 7.43093 | 8987 ft | 131 kts | 277° |
| 2026-05-07 20:43 | 43.12487 | 7.41860 | 8990 ft | 131 kts | 277° |
| 2026-05-07 20:44 | 43.12634 | 7.40628 | 8990 ft | 131 kts | 277° |
| 2026-05-07 20:44 | 43.12783 | 7.39376 | 8987 ft | 132 kts | 277° |
| 2026-05-07 20:44 | 43.12929 | 7.38141 | 8988 ft | 132 kts | 277° |
| 2026-05-07 20:44 | 43.13077 | 7.36903 | 8990 ft | 132 kts | 277° |
| 2026-05-07 20:45 | 43.13224 | 7.35661 | 8987 ft | 133 kts | 277° |
| 2026-05-07 20:45 | 43.13370 | 7.34423 | 8988 ft | 132 kts | 276° |
| 2026-05-07 20:45 | 43.13518 | 7.33167 | 8987 ft | 132 kts | 276° |
| 2026-05-07 20:45 | 43.13665 | 7.31929 | 8983 ft | 132 kts | 276° |
| 2026-05-07 20:46 | 43.13809 | 7.30698 | 8984 ft | 131 kts | 276° |
| 2026-05-07 20:46 | 43.13955 | 7.29462 | 8988 ft | 131 kts | 276° |
| 2026-05-07 20:46 | 43.14101 | 7.28225 | 8990 ft | 132 kts | 276° |
| 2026-05-07 20:46 | 43.14247 | 7.26987 | 8986 ft | 132 kts | 276° |
| 2026-05-07 20:47 | 43.14392 | 7.25748 | 8984 ft | 132 kts | 276° |
| 2026-05-07 20:47 | 43.14537 | 7.24511 | 8982 ft | 132 kts | 276° |
| 2026-05-07 20:47 | 43.14681 | 7.23278 | 8982 ft | 131 kts | 277° |
| 2026-05-07 20:47 | 43.14827 | 7.22037 | 8987 ft | 131 kts | 277° |
| 2026-05-07 20:48 | 43.14970 | 7.20806 | 8989 ft | 132 kts | 277° |
| 2026-05-07 20:48 | 43.15117 | 7.19557 | 8987 ft | 132 kts | 277° |
| 2026-05-07 20:48 | 43.15262 | 7.18323 | 8992 ft | 132 kts | 276° |
| 2026-05-07 20:48 | 43.15410 | 7.17065 | 8989 ft | 133 kts | 276° |
| 2026-05-07 20:49 | 43.15557 | 7.15807 | 8986 ft | 133 kts | 276° |
| 2026-05-07 20:49 | 43.15702 | 7.14561 | 8988 ft | 132 kts | 276° |
| 2026-05-07 20:49 | 43.15845 | 7.13319 | 8989 ft | 132 kts | 276° |
| 2026-05-07 20:49 | 43.15990 | 7.12080 | 8987 ft | 132 kts | 276° |
| 2026-05-07 20:50 | 43.16132 | 7.10855 | 8991 ft | 131 kts | 276° |
| 2026-05-07 20:50 | 43.16277 | 7.09608 | 8995 ft | 132 kts | 276° |
| 2026-05-07 20:50 | 43.16420 | 7.08367 | 8986 ft | 132 kts | 277° |
| 2026-05-07 20:50 | 43.16563 | 7.07126 | 8989 ft | 133 kts | 277° |
| 2026-05-07 20:51 | 43.16707 | 7.05881 | 8989 ft | 133 kts | 277° |
| 2026-05-07 20:51 | 43.16853 | 7.04625 | 8988 ft | 133 kts | 277° |
| 2026-05-07 20:51 | 43.16996 | 7.03384 | 8988 ft | 133 kts | 277° |
| 2026-05-07 20:51 | 43.17141 | 7.02124 | 8986 ft | 132 kts | 277° |
| 2026-05-07 20:52 | 43.17284 | 7.00883 | 8983 ft | 132 kts | 277° |
| 2026-05-07 20:52 | 43.17426 | 6.99653 | 8990 ft | 132 kts | 277° |
| 2026-05-07 20:52 | 43.17571 | 6.98398 | 8999 ft | 132 kts | 277° |
| 2026-05-07 20:52 | 43.17715 | 6.97152 | 8988 ft | 133 kts | 277° |
| 2026-05-07 20:53 | 43.17859 | 6.95898 | 8987 ft | 133 kts | 277° |
| 2026-05-07 20:53 | 43.18001 | 6.94661 | 8984 ft | 133 kts | 277° |
| 2026-05-07 20:53 | 43.18144 | 6.93407 | 8988 ft | 132 kts | 277° |
| 2026-05-07 20:53 | 43.18286 | 6.92163 | 8989 ft | 133 kts | 277° |
| 2026-05-07 20:54 | 43.18428 | 6.90923 | 8989 ft | 133 kts | 277° |
| 2026-05-07 20:54 | 43.18572 | 6.89662 | 8992 ft | 133 kts | 277° |
| 2026-05-07 20:54 | 43.18713 | 6.88418 | 8989 ft | 133 kts | 277° |
| 2026-05-07 20:54 | 43.18856 | 6.87165 | 8984 ft | 133 kts | 277° |
| 2026-05-07 20:55 | 43.19000 | 6.85903 | 8983 ft | 133 kts | 277° |
| 2026-05-07 20:55 | 43.19142 | 6.84655 | 8988 ft | 133 kts | 277° |
| 2026-05-07 20:55 | 43.19285 | 6.83402 | 8984 ft | 133 kts | 277° |
| 2026-05-07 20:55 | 43.19427 | 6.82151 | 8988 ft | 133 kts | 277° |
| 2026-05-07 20:56 | 43.19570 | 6.80895 | 8990 ft | 133 kts | 276° |
| 2026-05-07 20:56 | 43.19711 | 6.79643 | 8993 ft | 134 kts | 276° |
| 2026-05-07 20:56 | 43.19854 | 6.78388 | 8990 ft | 134 kts | 276° |
| 2026-05-07 20:56 | 43.19996 | 6.77130 | 8988 ft | 134 kts | 276° |
| 2026-05-07 20:57 | 43.20138 | 6.75870 | 8986 ft | 133 kts | 276° |
| 2026-05-07 20:57 | 43.20278 | 6.74620 | 8984 ft | 132 kts | 277° |
| 2026-05-07 20:57 | 43.20419 | 6.73374 | 8986 ft | 132 kts | 277° |
| 2026-05-07 20:57 | 43.20560 | 6.72116 | 8984 ft | 132 kts | 277° |
| 2026-05-07 20:58 | 43.20701 | 6.70866 | 8986 ft | 132 kts | 277° |
| 2026-05-07 20:58 | 43.20840 | 6.69626 | 8989 ft | 132 kts | 277° |
| 2026-05-07 20:58 | 43.20979 | 6.68384 | 8989 ft | 133 kts | 277° |
| 2026-05-07 20:58 | 43.21120 | 6.67122 | 8986 ft | 133 kts | 277° |
| 2026-05-07 20:59 | 43.21260 | 6.65881 | 8988 ft | 133 kts | 277° |
| 2026-05-07 20:59 | 43.21401 | 6.64629 | 8989 ft | 133 kts | 277° |
| 2026-05-07 20:59 | 43.21542 | 6.63372 | 8988 ft | 133 kts | 276° |
| 2026-05-07 20:59 | 43.21682 | 6.62126 | 8982 ft | 133 kts | 276° |
| 2026-05-07 21:00 | 43.21821 | 6.60880 | 8978 ft | 132 kts | 276° |
| 2026-05-07 21:00 | 43.21905 | 6.59632 | 8984 ft | 131 kts | 269° |
| 2026-05-07 21:00 | 43.21927 | 6.58385 | 8983 ft | 131 kts | 269° |
| 2026-05-07 21:00 | 43.21945 | 6.57128 | 8981 ft | 132 kts | 269° |
| 2026-05-07 21:01 | 43.21963 | 6.55868 | 8983 ft | 132 kts | 269° |
| 2026-05-07 21:01 | 43.21981 | 6.54611 | 8984 ft | 132 kts | 269° |
| 2026-05-07 21:01 | 43.21999 | 6.53347 | 8985 ft | 132 kts | 269° |
| 2026-05-07 21:01 | 43.22017 | 6.52095 | 8983 ft | 132 kts | 269° |
| 2026-05-07 21:02 | 43.22036 | 6.50837 | 8983 ft | 133 kts | 269° |
| 2026-05-07 21:02 | 43.22055 | 6.49568 | 8986 ft | 132 kts | 269° |
| 2026-05-07 21:02 | 43.22073 | 6.48309 | 8991 ft | 132 kts | 269° |
| 2026-05-07 21:02 | 43.22092 | 6.47051 | 8994 ft | 131 kts | 269° |
| 2026-05-07 21:03 | 43.22110 | 6.45811 | 9000 ft | 130 kts | 268° |
| 2026-05-07 21:03 | 43.22126 | 6.44562 | 9005 ft | 131 kts | 268° |
| 2026-05-07 21:03 | 43.22143 | 6.43316 | 9005 ft | 131 kts | 268° |
| 2026-05-07 21:03 | 43.22160 | 6.42060 | 9004 ft | 131 kts | 268° |
| 2026-05-07 21:04 | 43.22178 | 6.40808 | 9001 ft | 131 kts | 268° |
| 2026-05-07 21:04 | 43.22197 | 6.39574 | 9003 ft | 131 kts | 268° |
| 2026-05-07 21:04 | 43.22215 | 6.38326 | 9004 ft | 131 kts | 268° |
| 2026-05-07 21:04 | 43.22234 | 6.37073 | 9006 ft | 131 kts | 268° |
| 2026-05-07 21:05 | 43.22252 | 6.35813 | 9002 ft | 132 kts | 269° |
| 2026-05-07 21:05 | 43.22271 | 6.34557 | 9001 ft | 132 kts | 268° |
| 2026-05-07 21:05 | 43.22288 | 6.33300 | 8999 ft | 132 kts | 268° |
| 2026-05-07 21:05 | 43.22307 | 6.32052 | 8996 ft | 131 kts | 268° |
| 2026-05-07 21:06 | 43.22324 | 6.30802 | 8993 ft | 131 kts | 268° |
| 2026-05-07 21:06 | 43.22342 | 6.29545 | 8993 ft | 131 kts | 268° |
| 2026-05-07 21:06 | 43.22359 | 6.28300 | 8986 ft | 132 kts | 268° |
| 2026-05-07 21:06 | 43.22376 | 6.27048 | 8979 ft | 132 kts | 269° |
| 2026-05-07 21:07 | 43.22394 | 6.25773 | 8982 ft | 132 kts | 269° |
| 2026-05-07 21:07 | 43.22411 | 6.24512 | 8983 ft | 132 kts | 269° |
| 2026-05-07 21:07 | 43.22429 | 6.23263 | 8989 ft | 132 kts | 269° |
| 2026-05-07 21:07 | 43.22447 | 6.22003 | 8989 ft | 132 kts | 268° |
| 2026-05-07 21:08 | 43.22464 | 6.20746 | 8986 ft | 131 kts | 268° |
| 2026-05-07 21:08 | 43.22482 | 6.19505 | 8992 ft | 131 kts | 268° |
| 2026-05-07 21:08 | 43.22498 | 6.18250 | 8994 ft | 131 kts | 268° |
| 2026-05-07 21:08 | 43.22515 | 6.17012 | 8995 ft | 132 kts | 268° |
| 2026-05-07 21:09 | 43.22532 | 6.15739 | 8986 ft | 132 kts | 268° |
| 2026-05-07 21:09 | 43.22548 | 6.14487 | 8982 ft | 131 kts | 268° |
| 2026-05-07 21:09 | 43.22562 | 6.13244 | 8982 ft | 131 kts | 268° |
| 2026-05-07 21:09 | 43.22576 | 6.11991 | 8985 ft | 131 kts | 268° |
| 2026-05-07 21:10 | 43.22587 | 6.10751 | 8994 ft | 131 kts | 268° |
| 2026-05-07 21:10 | 43.22598 | 6.09495 | 8991 ft | 132 kts | 268° |
| 2026-05-07 21:10 | 43.22609 | 6.08221 | 8989 ft | 132 kts | 268° |
| 2026-05-07 21:10 | 43.22621 | 6.06965 | 8990 ft | 132 kts | 268° |
| 2026-05-07 21:11 | 43.22633 | 6.05701 | 8989 ft | 132 kts | 268° |
| 2026-05-07 21:11 | 43.22644 | 6.04433 | 8989 ft | 132 kts | 268° |
| 2026-05-07 21:11 | 43.22666 | 6.01919 | 8986 ft | 131 kts | 268° |
| 2026-05-07 21:12 | 43.22871 | 6.00732 | 8972 ft | 131 kts | 297° |
| 2026-05-07 21:12 | 43.23349 | 5.99662 | 8987 ft | 131 kts | 301° |
| 2026-05-07 21:12 | 43.23837 | 5.98611 | 8990 ft | 131 kts | 300° |
| 2026-05-07 21:12 | 43.24325 | 5.97546 | 8992 ft | 132 kts | 300° |
| 2026-05-07 21:13 | 43.24803 | 5.96489 | 8992 ft | 132 kts | 300° |
| 2026-05-07 21:13 | 43.25282 | 5.95416 | 8990 ft | 132 kts | 300° |
| 2026-05-07 21:13 | 43.25766 | 5.94336 | 8991 ft | 132 kts | 300° |
| 2026-05-07 21:13 | 43.26247 | 5.93262 | 8992 ft | 132 kts | 300° |
| 2026-05-07 21:14 | 43.26723 | 5.92199 | 8991 ft | 132 kts | 300° |
| 2026-05-07 21:14 | 43.27203 | 5.91118 | 8993 ft | 132 kts | 300° |
| 2026-05-07 21:14 | 43.27682 | 5.90032 | 8993 ft | 132 kts | 300° |
| 2026-05-07 21:14 | 43.28152 | 5.88961 | 8992 ft | 132 kts | 299° |
| 2026-05-07 21:15 | 43.28625 | 5.87876 | 8991 ft | 132 kts | 299° |
| 2026-05-07 21:15 | 43.29094 | 5.86801 | 8991 ft | 132 kts | 299° |
| 2026-05-07 21:15 | 43.29562 | 5.85729 | 8990 ft | 132 kts | 299° |
| 2026-05-07 21:15 | 43.30035 | 5.84644 | 8992 ft | 132 kts | 299° |
| 2026-05-07 21:16 | 43.30505 | 5.83562 | 8990 ft | 132 kts | 298° |
| 2026-05-07 21:16 | 43.30976 | 5.82481 | 8991 ft | 132 kts | 299° |
| 2026-05-07 21:16 | 43.31447 | 5.81397 | 8991 ft | 132 kts | 299° |
| 2026-05-07 21:16 | 43.31914 | 5.80322 | 8992 ft | 132 kts | 299° |
| 2026-05-07 21:17 | 43.32390 | 5.79229 | 8993 ft | 133 kts | 299° |
| 2026-05-07 21:17 | 43.32861 | 5.78144 | 8992 ft | 133 kts | 299° |
| 2026-05-07 21:17 | 43.33338 | 5.77046 | 8993 ft | 133 kts | 299° |
| 2026-05-07 21:17 | 43.33810 | 5.75959 | 8992 ft | 133 kts | 299° |
| 2026-05-07 21:18 | 43.34287 | 5.74862 | 8991 ft | 133 kts | 299° |
| 2026-05-07 21:18 | 43.34758 | 5.73778 | 8991 ft | 133 kts | 299° |
| 2026-05-07 21:18 | 43.35232 | 5.72686 | 8992 ft | 132 kts | 299° |
| 2026-05-07 21:18 | 43.35706 | 5.71594 | 8991 ft | 132 kts | 299° |
| 2026-05-07 21:19 | 43.36172 | 5.70518 | 8991 ft | 132 kts | 299° |
| 2026-05-07 21:19 | 43.36645 | 5.69428 | 8991 ft | 133 kts | 299° |
| 2026-05-07 21:19 | 43.37114 | 5.68345 | 8990 ft | 133 kts | 299° |
| 2026-05-07 21:19 | 43.37588 | 5.67249 | 8989 ft | 133 kts | 299° |
| 2026-05-07 21:20 | 43.38060 | 5.66158 | 8990 ft | 133 kts | 298° |
| 2026-05-07 21:20 | 43.38532 | 5.65066 | 8990 ft | 133 kts | 299° |
| 2026-05-07 21:20 | 43.39006 | 5.63971 | 8993 ft | 133 kts | 299° |
| 2026-05-07 21:20 | 43.39477 | 5.62880 | 8994 ft | 133 kts | 299° |
| 2026-05-07 21:21 | 43.39946 | 5.61795 | 8996 ft | 133 kts | 299° |
| 2026-05-07 21:21 | 43.40424 | 5.60692 | 8996 ft | 133 kts | 299° |
| 2026-05-07 21:21 | 43.40891 | 5.59609 | 8995 ft | 133 kts | 299° |
| 2026-05-07 21:21 | 43.41369 | 5.58503 | 8995 ft | 133 kts | 299° |
| 2026-05-07 21:22 | 43.41836 | 5.57422 | 8993 ft | 133 kts | 299° |
| 2026-05-07 21:22 | 43.42309 | 5.56325 | 8992 ft | 133 kts | 298° |
| 2026-05-07 21:22 | 43.42778 | 5.55238 | 8995 ft | 132 kts | 298° |
| 2026-05-07 21:22 | 43.43241 | 5.54172 | 8951 ft | 124 kts | 300° |
| 2026-05-07 21:23 | 43.43694 | 5.53131 | 8665 ft | 131 kts | 298° |
| 2026-05-07 21:23 | 43.44158 | 5.52052 | 8412 ft | 130 kts | 300° |
| 2026-05-07 21:23 | 43.44618 | 5.50989 | 8103 ft | 132 kts | 300° |
| 2026-05-07 21:23 | 43.45086 | 5.49903 | 7788 ft | 132 kts | 300° |
| 2026-05-07 21:24 | 43.45551 | 5.48823 | 7468 ft | 132 kts | 300° |
| 2026-05-07 21:24 | 43.46022 | 5.47730 | 7159 ft | 132 kts | 300° |
| 2026-05-07 21:24 | 43.46482 | 5.46661 | 6857 ft | 131 kts | 300° |
| 2026-05-07 21:24 | 43.46944 | 5.45587 | 6548 ft | 129 kts | 301° |
| 2026-05-07 21:25 | 43.47399 | 5.44539 | 6158 ft | 128 kts | 301° |
| 2026-05-07 21:25 | 43.47846 | 5.43501 | 5751 ft | 127 kts | 301° |
| 2026-05-07 21:25 | 43.48290 | 5.42467 | 5337 ft | 126 kts | 301° |
| 2026-05-07 21:25 | 43.48732 | 5.41439 | 4926 ft | 125 kts | 301° |
| 2026-05-07 21:26 | 43.49169 | 5.40424 | 4499 ft | 122 kts | 302° |
| 2026-05-07 21:26 | 43.49592 | 5.39443 | 4044 ft | 120 kts | 301° |
| 2026-05-07 21:26 | 43.50013 | 5.38460 | 3543 ft | 120 kts | 302° |
| 2026-05-07 21:26 | 43.50426 | 5.37497 | 3055 ft | 119 kts | 302° |
| 2026-05-07 21:27 | 43.50787 | 5.36527 | 2735 ft | 110 kts | 283° |
| 2026-05-07 21:27 | 43.50922 | 5.35516 | 2487 ft | 107 kts | 280° |
| 2026-05-07 21:27 | 43.51046 | 5.34511 | 2234 ft | 105 kts | 278° |
| 2026-05-07 21:27 | 43.51156 | 5.33526 | 2009 ft | 101 kts | 278° |
| 2026-05-07 21:28 | 43.51355 | 5.32688 | 1957 ft | 84 kts | 301° |
| 2026-05-07 21:28 | 43.51699 | 5.32123 | 1947 ft | 69 kts | 330° |
| 2026-05-07 21:28 | 43.52108 | 5.32022 | 1941 ft | 54 kts | 13° |
| 2026-05-07 21:28 | 43.52453 | 5.32235 | 1964 ft | 65 kts | 26° |
| 2026-05-07 21:29 | 43.52911 | 5.32613 | 2008 ft | 84 kts | 31° |
| 2026-05-07 21:29 | 43.53401 | 5.33087 | 2001 ft | 87 kts | 53° |
| 2026-05-07 21:29 | 43.53511 | 5.33885 | 1987 ft | 82 kts | 98° |
| 2026-05-07 21:29 | 43.53225 | 5.34510 | 1918 ft | 82 kts | 146° |
| 2026-05-07 21:30 | 43.52637 | 5.34875 | 1373 ft | 106 kts | 163° |
| 2026-05-07 21:30 | 43.52002 | 5.35374 | 922 ft | 104 kts | 140° |
| 2026-05-07 21:30 | 43.52000 | 5.35926 | 971 ft | 60 kts | 358° |
| 2026-05-07 21:30 | 43.52016 | 5.35631 | 910 ft | 54 kts | 162° |
| 2026-05-07 21:31 | 43.51643 | 5.35743 | 728 ft | 51 kts | 167° |
| 2026-05-07 21:31 | 43.51297 | 5.36016 | 478 ft | 61 kts | 144° |
| 2026-05-07 21:31 | 43.50983 | 5.36318 | 354 ft | 51 kts | 144° |
| 2026-05-07 21:31 | 43.50723 | 5.36556 | 349 ft | 28 kts | 147° |
| 2026-05-07 21:32 | 43.50644 | 5.36562 | 349 ft | 10 kts | 232° |
| 2026-05-07 21:32 | 43.50603 | 5.36525 | 349 ft | 5 kts | 147° |
| 2026-05-07 21:32 | 43.50560 | 5.36566 | 350 ft | 14 kts | 149° |